Goodlettsville, Tennessee
Current Conditions -  °F | °C
As of 6:53 PM on Sunday 23 Nov 2014 (Local Time) from KBNA Reporting Station
Haze Haze  
Wind Chill: 59°   Ceiling: 2800
Heat Index: 59°   Visibility: 5mi
Dew Point: 57°   Wind: 17mph
Humidity: 93%   Direction: 160°SSE
Pressure: 29.37"   Gusts: 25mph
Location:  36.32°N, 86.71°W
Report Text: KBNA 240053Z 16015G22KT 5SM BR SCT015 BKN028 OVC048 15/14 A2937 RMK AO2 PK WND 17026/0002 RAB23E45 PRESFR SLP942 P0004 T01500139
Loading
Personal Weather Stations






























Interactive Weather Map New forecast layout! Learn more

10-Day Weather Forecast

Advertisements
Track Severe Weather on mobile